Time;durP1;ratioP1;P1;durP2;ratioP2;P2;SDS_P1;SDS_P2;PMS_P1;PMS_P2;Temp;Humidity;BMP_temperature;BMP_pressure;BME280_temperature;BME280_humidity;BME280_pressure;Samples;Min_cycle;Max_cycle;Signal;HPM_P1;HPM_P2
2022/03/27 00:01:24;;;;;;;12.90;6.85;;;;;;;;;;5054534;28;20052;-75
2022/03/27 00:03:50;;;;;;;8.95;6.63;;;;;;;;;;5054258;28;20024;-75
2022/03/27 00:06:16;;;;;;;10.82;5.38;;;;;;;;;;5052765;28;20048;-75
2022/03/27 00:08:42;;;;;;;10.50;6.30;;;;;;;;;;5053341;28;20025;-75
2022/03/27 00:11:24;;;;;;;10.70;6.60;;;;;;;;;;5054134;28;20029;-75
2022/03/27 00:13:50;;;;;;;11.55;7.03;;;;;;;;;;5065712;28;20101;-75
2022/03/27 00:16:16;;;;;;;11.52;7.30;;;;;;;;;;5074024;28;20028;-75
2022/03/27 00:18:42;;;;;;;12.25;7.47;;;;;;;;;;5074206;28;20035;-75
2022/03/27 00:21:09;;;;;;;11.50;8.32;;;;;;;;;;5073864;28;20047;-75
2022/03/27 00:23:35;;;;;;;10.85;8.00;;;;;;;;;;5074042;28;20374;-75
2022/03/27 00:26:01;;;;;;;12.85;8.10;;;;;;;;;;5073859;28;20408;-75
2022/03/27 00:28:32;;;;;;;9.55;7.60;;;;;;;;;;5073976;28;20033;-75
2022/03/27 00:30:59;;;;;;;11.73;7.43;;;;;;;;;;5073588;28;20028;-76
2022/03/27 00:33:26;;;;;;;12.20;7.50;;;;;;;;;;5073702;28;20048;-75
2022/03/27 00:35:52;;;;;;;11.60;8.15;;;;;;;;;;5073628;28;20028;-75
2022/03/27 00:38:18;;;;;;;12.73;7.72;;;;;;;;;;5073686;28;20390;-75
2022/03/27 00:40:44;;;;;;;11.27;7.25;;;;;;;;;;5068201;28;20483;-75
2022/03/27 00:43:11;;;;;;;13.80;7.97;;;;;;;;;;5053497;28;20124;-75
2022/03/27 00:45:37;;;;;;;11.95;7.07;;;;;;;;;;5035497;28;20040;-75
2022/03/27 00:48:03;;;;;;;12.95;7.57;;;;;;;;;;5053508;28;20044;-75
2022/03/27 00:50:30;;;;;;;11.75;7.60;;;;;;;;;;5053403;28;20031;-75
2022/03/27 00:52:57;;;;;;;11.70;7.32;;;;;;;;;;5053273;28;20025;-75
2022/03/27 00:55:23;;;;;;;11.27;7.93;;;;;;;;;;5053136;28;20023;-75
2022/03/27 00:57:50;;;;;;;11.73;7.55;;;;;;;;;;5053284;28;20105;-75
2022/03/27 01:00:36;;;;;;;11.48;7.88;;;;;;;;;;5053170;28;20017;-75
2022/03/27 01:03:04;;;;;;;11.60;8.25;;;;;;;;;;5053102;28;20056;-75
2022/03/27 01:05:30;;;;;;;13.60;7.82;;;;;;;;;;5053181;28;20021;-76
2022/03/27 01:07:56;;;;;;;12.65;7.95;;;;;;;;;;5053065;28;20032;-75
2022/03/27 01:10:23;;;;;;;13.63;8.18;;;;;;;;;;5052986;28;20023;-75
2022/03/27 01:12:51;;;;;;;16.02;7.75;;;;;;;;;;5052756;28;20028;-75
2022/03/27 01:15:28;;;;;;;13.68;8.23;;;;;;;;;;5052699;28;20020;-76
2022/03/27 01:17:54;;;;;;;15.20;8.65;;;;;;;;;;5051277;28;20551;-76
2022/03/27 01:20:29;;;;;;;14.52;9.13;;;;;;;;;;5068500;28;20020;-74
2022/03/27 01:22:55;;;;;;;16.40;8.68;;;;;;;;;;5072780;28;20023;-75
2022/03/27 01:25:22;;;;;;;11.02;8.23;;;;;;;;;;5072679;28;20028;-75
2022/03/27 01:27:48;;;;;;;17.10;9.55;;;;;;;;;;5072606;28;20027;-75
2022/03/27 01:30:14;;;;;;;12.77;7.78;;;;;;;;;;5072476;28;20017;-75
2022/03/27 01:32:40;;;;;;;13.68;8.75;;;;;;;;;;5072571;28;20039;-75
2022/03/27 01:35:06;;;;;;;11.77;8.30;;;;;;;;;;5072454;28;20029;-75
2022/03/27 01:37:32;;;;;;;12.57;9.50;;;;;;;;;;5072265;28;20032;-75
2022/03/27 01:39:58;;;;;;;11.98;7.78;;;;;;;;;;5072373;28;20478;-75
2022/03/27 01:42:25;;;;;;;10.93;7.65;;;;;;;;;;5053226;28;20507;-75
2022/03/27 01:44:51;;;;;;;13.95;9.15;;;;;;;;;;5052279;28;20025;-76
2022/03/27 01:47:17;;;;;;;12.77;8.68;;;;;;;;;;5052339;28;20475;-75
2022/03/27 01:49:43;;;;;;;12.02;8.45;;;;;;;;;;5034178;28;20051;-75
2022/03/27 01:52:09;;;;;;;13.00;8.57;;;;;;;;;;5052201;28;20017;-75
2022/03/27 01:54:35;;;;;;;13.15;9.20;;;;;;;;;;5052222;28;20029;-75
2022/03/27 01:57:02;;;;;;;11.95;9.13;;;;;;;;;;5051962;28;20032;-75
2022/03/27 01:59:28;;;;;;;14.00;9.80;;;;;;;;;;5052159;28;20031;-75
2022/03/27 02:01:54;;;;;;;14.88;10.02;;;;;;;;;;5052204;28;20416;-76
2022/03/27 02:04:20;;;;;;;28.75;10.25;;;;;;;;;;5052066;28;20061;-75
2022/03/27 02:06:46;;;;;;;14.00;9.57;;;;;;;;;;5034019;28;20132;-75
2022/03/27 02:09:12;;;;;;;14.55;9.60;;;;;;;;;;5052113;28;20104;-75
2022/03/27 02:11:39;;;;;;;17.30;11.27;;;;;;;;;;5051804;28;20074;-75
2022/03/27 02:14:05;;;;;;;13.52;9.80;;;;;;;;;;5051982;28;20035;-75
2022/03/27 02:16:31;;;;;;;18.05;10.02;;;;;;;;;;5051933;28;20025;-75
2022/03/27 02:18:57;;;;;;;15.88;9.55;;;;;;;;;;5051908;28;20044;-75
2022/03/27 02:21:23;;;;;;;15.73;10.35;;;;;;;;;;5051902;28;20059;-75
2022/03/27 02:23:49;;;;;;;15.75;10.77;;;;;;;;;;5051976;28;20029;-75
2022/03/27 02:26:15;;;;;;;14.25;9.50;;;;;;;;;;5051599;28;20556;-75
2022/03/27 02:28:42;;;;;;;17.63;10.32;;;;;;;;;;5051891;28;20025;-75
2022/03/27 02:31:08;;;;;;;13.93;9.63;;;;;;;;;;5066376;28;20032;-76
2022/03/27 02:33:35;;;;;;;15.88;10.52;;;;;;;;;;5075395;28;20027;-75
2022/03/27 02:36:02;;;;;;;14.25;9.52;;;;;;;;;;5075871;28;20028;-75
2022/03/27 02:38:28;;;;;;;13.25;9.80;;;;;;;;;;5075948;28;20028;-75
2022/03/27 02:40:54;;;;;;;17.35;10.70;;;;;;;;;;5069340;28;20926;-75
2022/03/27 02:43:20;;;;;;;15.25;9.55;;;;;;;;;;5055516;28;20048;-75
2022/03/27 02:45:48;;;;;;;13.50;9.63;;;;;;;;;;5055621;28;20025;-75
2022/03/27 02:48:14;;;;;;;16.85;10.15;;;;;;;;;;5037950;28;20379;-75
2022/03/27 02:50:43;;;;;;;16.65;9.60;;;;;;;;;;5055506;28;20052;-76
2022/03/27 02:53:09;;;;;;;17.52;9.88;;;;;;;;;;5055608;28;20021;-75
2022/03/27 02:55:35;;;;;;;14.70;9.27;;;;;;;;;;5055409;28;20021;-75
2022/03/27 02:58:01;;;;;;;16.38;9.93;;;;;;;;;;5055749;28;20017;-76
2022/03/27 03:00:28;;;;;;;18.90;10.60;;;;;;;;;;5037559;28;20021;-75
2022/03/27 03:02:54;;;;;;;19.88;10.63;;;;;;;;;;5037698;28;20447;-75
2022/03/27 03:05:20;;;;;;;16.13;9.80;;;;;;;;;;5055407;28;20035;-75
2022/03/27 03:07:46;;;;;;;20.52;11.38;;;;;;;;;;5055427;28;20475;-75
2022/03/27 03:10:16;;;;;;;19.42;11.07;;;;;;;;;;5055345;28;20021;-75
2022/03/27 03:12:42;;;;;;;18.77;10.73;;;;;;;;;;5055257;28;20049;-75
2022/03/27 03:15:08;;;;;;;17.75;10.35;;;;;;;;;;5055362;28;20379;-75
2022/03/27 03:17:35;;;;;;;20.33;11.25;;;;;;;;;;5055188;28;20029;-76
2022/03/27 03:20:01;;;;;;;19.67;11.02;;;;;;;;;;5068195;28;20043;-75
2022/03/27 03:22:27;;;;;;;20.27;11.75;;;;;;;;;;5075193;28;20182;-75
2022/03/27 03:24:53;;;;;;;20.30;10.90;;;;;;;;;;5075272;28;20028;-75
2022/03/27 03:27:20;;;;;;;17.65;10.82;;;;;;;;;;5074772;28;20028;-75
2022/03/27 03:29:46;;;;;;;17.48;10.38;;;;;;;;;;5075018;28;20017;-75
2022/03/27 03:32:12;;;;;;;18.38;10.88;;;;;;;;;;5075192;28;20033;-75
2022/03/27 03:34:38;;;;;;;18.60;10.82;;;;;;;;;;5056869;28;20032;-76
2022/03/27 03:37:05;;;;;;;20.60;11.52;;;;;;;;;;5074693;28;20027;-75
2022/03/27 03:39:31;;;;;;;18.65;10.38;;;;;;;;;;5074805;28;20386;-75
2022/03/27 03:41:57;;;;;;;18.15;11.00;;;;;;;;;;5074531;28;20056;-75
2022/03/27 03:44:24;;;;;;;17.52;10.18;;;;;;;;;;5055202;28;20046;-75
2022/03/27 03:46:50;;;;;;;16.55;9.77;;;;;;;;;;5074758;28;20078;-75
2022/03/27 03:49:16;;;;;;;15.80;9.93;;;;;;;;;;5056642;28;20025;-75
2022/03/27 03:51:42;;;;;;;19.80;11.27;;;;;;;;;;5074642;28;20429;-75
2022/03/27 03:54:08;;;;;;;16.63;9.98;;;;;;;;;;5074501;28;20635;-75
2022/03/27 03:56:34;;;;;;;17.55;10.35;;;;;;;;;;5074425;28;20462;-75
2022/03/27 03:59:00;;;;;;;16.48;10.10;;;;;;;;;;5074537;28;20028;-75
2022/03/27 04:01:27;;;;;;;18.60;10.55;;;;;;;;;;5074447;28;20039;-75
2022/03/27 04:03:53;;;;;;;15.30;9.70;;;;;;;;;;5074424;28;20455;-75
2022/03/27 04:06:20;;;;;;;18.63;10.82;;;;;;;;;;5074219;28;20021;-76
2022/03/27 04:08:46;;;;;;;17.92;11.50;;;;;;;;;;5074403;28;20025;-75
2022/03/27 04:11:17;;;;;;;18.80;11.07;;;;;;;;;;5074398;28;20050;-76
2022/03/27 04:13:46;;;;;;;20.73;11.38;;;;;;;;;;5074234;28;20021;-75
2022/03/27 04:16:13;;;;;;;19.75;10.90;;;;;;;;;;5074204;28;20081;-75
2022/03/27 04:18:39;;;;;;;18.58;10.35;;;;;;;;;;5074071;28;20024;-75
2022/03/27 04:21:06;;;;;;;19.20;10.43;;;;;;;;;;5073825;28;20046;-75
2022/03/27 04:23:32;;;;;;;19.08;10.63;;;;;;;;;;5074129;28;20044;-75
2022/03/27 04:25:58;;;;;;;20.75;10.95;;;;;;;;;;5073833;28;20420;-75
2022/03/27 04:28:24;;;;;;;17.23;10.32;;;;;;;;;;5073943;28;20028;-76
2022/03/27 04:30:50;;;;;;;17.80;10.55;;;;;;;;;;5073724;28;20034;-75
2022/03/27 04:33:17;;;;;;;20.10;11.27;;;;;;;;;;5072606;28;20128;-75
2022/03/27 04:35:43;;;;;;;16.80;10.75;;;;;;;;;;5073756;28;20031;-76
2022/03/27 04:38:09;;;;;;;21.92;11.27;;;;;;;;;;5073894;28;20033;-75
2022/03/27 04:40:35;;;;;;;16.55;9.68;;;;;;;;;;5069924;28;20355;-75
2022/03/27 04:43:02;;;;;;;17.30;10.15;;;;;;;;;;5052011;28;20502;-75
2022/03/27 04:45:28;;;;;;;19.17;11.07;;;;;;;;;;5053682;28;20020;-75
2022/03/27 04:47:54;;;;;;;17.75;10.52;;;;;;;;;;5053516;28;20147;-75
2022/03/27 04:50:20;;;;;;;17.95;10.02;;;;;;;;;;5053466;28;20067;-76
2022/03/27 04:52:46;;;;;;;18.17;10.65;;;;;;;;;;5053332;28;20025;-75
2022/03/27 04:55:12;;;;;;;17.20;10.45;;;;;;;;;;5052828;28;20036;-75
2022/03/27 04:57:39;;;;;;;18.98;10.70;;;;;;;;;;5053190;28;20059;-75
2022/03/27 05:00:09;;;;;;;16.67;10.18;;;;;;;;;;5053258;28;20017;-75
2022/03/27 05:02:36;;;;;;;17.95;10.25;;;;;;;;;;5053284;28;20048;-76
2022/03/27 05:05:04;;;;;;;18.63;10.50;;;;;;;;;;5053045;28;20109;-75
2022/03/27 05:07:30;;;;;;;18.67;10.00;;;;;;;;;;5053340;28;20379;-76
2022/03/27 05:09:56;;;;;;;17.73;9.98;;;;;;;;;;5053180;28;20387;-75
2022/03/27 05:12:22;;;;;;;17.13;9.82;;;;;;;;;;5053054;28;20040;-75
2022/03/27 05:14:48;;;;;;;19.05;10.68;;;;;;;;;;5052963;28;20033;-75
2022/03/27 05:17:14;;;;;;;18.88;10.38;;;;;;;;;;5053180;28;20045;-75
2022/03/27 05:19:41;;;;;;;16.33;9.95;;;;;;;;;;5062844;28;20350;-75
2022/03/27 05:22:07;;;;;;;15.65;9.60;;;;;;;;;;5072655;28;20024;-76
2022/03/27 05:24:33;;;;;;;17.25;10.15;;;;;;;;;;5073125;28;20036;-76
2022/03/27 05:26:59;;;;;;;18.92;10.52;;;;;;;;;;5072826;28;20036;-75
2022/03/27 05:29:25;;;;;;;20.15;10.52;;;;;;;;;;5072625;28;20063;-75
2022/03/27 05:31:52;;;;;;;16.17;10.25;;;;;;;;;;5073032;28;20430;-75
2022/03/27 05:34:18;;;;;;;19.38;11.00;;;;;;;;;;5072698;28;20028;-75
2022/03/27 05:36:45;;;;;;;20.20;10.63;;;;;;;;;;5072372;28;20081;-75
2022/03/27 05:39:12;;;;;;;21.77;10.63;;;;;;;;;;5072676;28;20455;-75
2022/03/27 05:41:38;;;;;;;21.45;10.80;;;;;;;;;;5059958;28;20059;-75
2022/03/27 05:44:04;;;;;;;21.88;11.32;;;;;;;;;;5052302;28;20066;-75
2022/03/27 05:46:30;;;;;;;21.30;10.90;;;;;;;;;;5052551;28;20027;-75
2022/03/27 05:48:56;;;;;;;21.30;11.77;;;;;;;;;;5052400;28;20032;-75
2022/03/27 05:51:22;;;;;;;19.23;11.25;;;;;;;;;;5052637;28;20017;-76
2022/03/27 05:53:48;;;;;;;18.92;10.52;;;;;;;;;;5052602;28;20029;-75
2022/03/27 05:56:14;;;;;;;21.27;11.50;;;;;;;;;;5050789;28;20032;-75
2022/03/27 05:58:40;;;;;;;20.35;11.10;;;;;;;;;;5052513;28;20049;-75
2022/03/27 06:01:06;;;;;;;20.60;11.20;;;;;;;;;;5052038;28;20574;-75
2022/03/27 06:03:33;;;;;;;19.08;10.98;;;;;;;;;;5052280;28;20036;-75
2022/03/27 06:05:59;;;;;;;20.20;11.63;;;;;;;;;;5052079;28;20021;-75
2022/03/27 06:08:25;;;;;;;18.17;10.07;;;;;;;;;;5051609;28;20519;-75
2022/03/27 06:10:51;;;;;;;21.33;11.27;;;;;;;;;;5052189;28;20036;-75
2022/03/27 06:13:19;;;;;;;20.05;10.60;;;;;;;;;;5052251;28;20036;-75
2022/03/27 06:15:46;;;;;;;20.13;10.85;;;;;;;;;;5052098;28;20101;-75
2022/03/27 06:18:12;;;;;;;21.30;11.85;;;;;;;;;;5052355;28;20017;-75
2022/03/27 06:20:38;;;;;;;18.10;10.35;;;;;;;;;;5070092;28;20063;-75
2022/03/27 06:23:06;;;;;;;22.10;11.50;;;;;;;;;;5072067;28;20035;-75
2022/03/27 06:25:32;;;;;;;19.83;11.27;;;;;;;;;;5071984;28;20096;-75
2022/03/27 06:27:59;;;;;;;20.00;11.23;;;;;;;;;;5072049;28;20054;-75
2022/03/27 06:30:27;;;;;;;19.40;10.63;;;;;;;;;;5072156;28;20505;-75
2022/03/27 06:32:53;;;;;;;21.42;10.85;;;;;;;;;;5072168;28;20043;-75
2022/03/27 06:35:21;;;;;;;21.48;11.20;;;;;;;;;;5072078;28;20024;-75
2022/03/27 06:37:48;;;;;;;21.92;12.02;;;;;;;;;;5072060;28;20020;-75
2022/03/27 06:40:14;;;;;;;21.75;11.02;;;;;;;;;;5071767;28;20037;-75
2022/03/27 06:42:41;;;;;;;21.17;12.02;;;;;;;;;;5071808;28;20053;-75
2022/03/27 06:45:07;;;;;;;18.67;10.90;;;;;;;;;;5072022;28;20029;-75
2022/03/27 06:47:34;;;;;;;21.23;10.10;;;;;;;;;;5071992;28;20017;-75
2022/03/27 06:50:04;;;;;;;21.05;11.70;;;;;;;;;;5071947;28;20070;-75
2022/03/27 06:52:30;;;;;;;20.33;11.07;;;;;;;;;;5072022;28;20066;-76
2022/03/27 06:54:56;;;;;;;19.77;10.68;;;;;;;;;;5071933;28;20103;-75
2022/03/27 06:57:22;;;;;;;20.40;11.02;;;;;;;;;;5072047;28;20154;-75
2022/03/27 07:05:22;;;;;;;21.42;11.10;;;;;;;;;;5071902;28;20402;-75
2022/03/27 07:07:48;;;;;;;17.00;10.18;;;;;;;;;;5071829;28;20020;-75
2022/03/27 07:10:14;;;;;;;23.20;11.00;;;;;;;;;;5071725;28;20067;-75
2022/03/27 07:12:41;;;;;;;22.35;10.30;;;;;;;;;;5071816;28;20028;-75
2022/03/27 07:15:08;;;;;;;17.60;9.73;;;;;;;;;;5071724;28;20032;-75
2022/03/27 07:17:42;;;;;;;15.60;9.48;;;;;;;;;;5071715;28;20028;-75
2022/03/27 07:20:08;;;;;;;15.52;9.63;;;;;;;;;;5075359;28;20383;-75
2022/03/27 07:22:35;;;;;;;15.82;9.25;;;;;;;;;;5075370;28;20021;-75
2022/03/27 07:25:02;;;;;;;22.42;10.50;;;;;;;;;;5075613;28;20016;-76
2022/03/27 07:27:28;;;;;;;16.02;9.52;;;;;;;;;;5075047;28;20031;-75
2022/03/27 07:29:54;;;;;;;15.73;9.05;;;;;;;;;;5075077;28;20027;-75
2022/03/27 07:32:20;;;;;;;21.02;10.98;;;;;;;;;;5075034;28;20040;-75
2022/03/27 07:34:46;;;;;;;19.40;10.63;;;;;;;;;;5075178;28;20021;-75
2022/03/27 07:37:13;;;;;;;20.00;10.32;;;;;;;;;;5075012;28;20101;-75
2022/03/27 07:39:39;;;;;;;19.40;9.52;;;;;;;;;;5074891;28;20025;-75
2022/03/27 07:42:05;;;;;;;17.48;10.18;;;;;;;;;;5058542;28;20040;-75
2022/03/27 07:44:31;;;;;;;15.45;9.73;;;;;;;;;;5054602;28;20045;-75
2022/03/27 07:46:59;;;;;;;17.13;10.00;;;;;;;;;;5054583;28;20035;-75
2022/03/27 07:49:25;;;;;;;20.45;10.65;;;;;;;;;;5054604;28;20387;-75
2022/03/27 07:51:51;;;;;;;19.33;11.35;;;;;;;;;;5054635;28;20017;-75
2022/03/27 07:54:18;;;;;;;18.25;10.60;;;;;;;;;;5054608;28;20121;-75
2022/03/27 07:56:44;;;;;;;19.10;10.38;;;;;;;;;;5054572;28;20025;-76
2022/03/27 07:59:10;;;;;;;18.17;10.85;;;;;;;;;;5054541;28;20079;-75
2022/03/27 08:01:36;;;;;;;23.33;10.27;;;;;;;;;;5054601;28;20029;-75
2022/03/27 08:04:02;;;;;;;16.98;10.30;;;;;;;;;;5054166;28;20082;-75
2022/03/27 08:06:29;;;;;;;17.10;10.65;;;;;;;;;;5036271;28;20317;-75
2022/03/27 08:08:56;;;;;;;17.63;10.75;;;;;;;;;;5054313;28;20478;-75
2022/03/27 08:11:23;;;;;;;17.15;10.10;;;;;;;;;;5054140;28;20025;-75
2022/03/27 08:13:49;;;;;;;17.25;10.27;;;;;;;;;;5065715;28;20367;-75
2022/03/27 08:16:15;;;;;;;15.98;10.30;;;;;;;;;;5074096;28;20029;-75
2022/03/27 08:18:43;;;;;;;16.58;10.27;;;;;;;;;;5055759;28;20039;-75
2022/03/27 08:21:09;;;;;;;15.60;9.73;;;;;;;;;;5074113;28;20074;-75
2022/03/27 08:23:35;;;;;;;18.80;10.93;;;;;;;;;;5073963;28;20033;-75
2022/03/27 08:28:45;;;;;;;21.77;11.70;;;;;;;;;;5073941;28;20027;-75
2022/03/27 08:31:11;;;;;;;18.45;9.85;;;;;;;;;;5054956;28;20130;-75
2022/03/27 08:33:38;;;;;;;26.25;11.88;;;;;;;;;;5073687;28;20493;-76
2022/03/27 08:36:04;;;;;;;19.73;12.02;;;;;;;;;;5073630;28;20033;-75
2022/03/27 08:38:30;;;;;;;19.27;11.73;;;;;;;;;;5073644;28;20033;-75
2022/03/27 08:40:56;;;;;;;20.15;11.70;;;;;;;;;;5073407;28;20031;-75
2022/03/27 08:43:22;;;;;;;20.52;13.02;;;;;;;;;;5073213;28;20048;-75
2022/03/27 08:45:48;;;;;;;21.33;13.30;;;;;;;;;;5073552;28;20028;-75
2022/03/27 08:48:14;;;;;;;25.23;13.40;;;;;;;;;;5073561;28;20106;-75
2022/03/27 08:50:58;;;;;;;25.52;13.88;;;;;;;;;;5073319;28;20033;-75
2022/03/27 08:53:31;;;;;;;27.02;14.77;;;;;;;;;;5073304;28;20020;-75
2022/03/27 08:56:03;;;;;;;24.35;13.80;;;;;;;;;;5073084;28;20032;-75
2022/03/27 08:58:37;;;;;;;23.50;14.27;;;;;;;;;;5073463;28;20025;-75
2022/03/27 09:01:04;;;;;;;24.75;13.98;;;;;;;;;;5073420;28;20277;-75
2022/03/27 09:03:33;;;;;;;24.52;14.25;;;;;;;;;;5073219;28;20381;-75
2022/03/27 09:06:01;;;;;;;24.13;13.75;;;;;;;;;;5072957;28;20070;-75
2022/03/27 09:08:29;;;;;;;26.13;14.13;;;;;;;;;;5072993;28;20099;-76
2022/03/27 09:10:55;;;;;;;24.92;14.88;;;;;;;;;;5072661;28;20028;-75
2022/03/27 09:13:21;;;;;;;23.35;14.13;;;;;;;;;;5072847;28;20012;-75
2022/03/27 09:16:02;;;;;;;27.85;14.30;;;;;;;;;;5072495;28;20104;-75
2022/03/27 09:18:44;;;;;;;26.70;14.45;;;;;;;;;;5072791;28;20033;-75
2022/03/27 09:21:10;;;;;;;22.08;13.43;;;;;;;;;;5072568;28;20032;-75
2022/03/27 09:23:36;;;;;;;27.48;14.48;;;;;;;;;;5072295;28;20078;-75
2022/03/27 09:26:04;;;;;;;23.85;14.30;;;;;;;;;;5072565;28;20056;-75
2022/03/27 09:28:31;;;;;;;27.58;14.95;;;;;;;;;;5072553;28;20023;-75
2022/03/27 09:30:59;;;;;;;28.95;14.75;;;;;;;;;;5072286;28;20109;-75
2022/03/27 09:33:32;;;;;;;24.60;14.43;;;;;;;;;;5072408;28;20078;-76
2022/03/27 09:36:06;;;;;;;27.10;15.23;;;;;;;;;;5072151;28;20020;-75
2022/03/27 09:38:32;;;;;;;22.17;14.40;;;;;;;;;;5072507;28;20017;-75
2022/03/27 09:40:58;;;;;;;20.80;12.65;;;;;;;;;;5065379;28;20029;-75
2022/03/27 09:43:24;;;;;;;21.80;12.85;;;;;;;;;;5052076;28;20107;-75
2022/03/27 09:45:58;;;;;;;23.83;12.20;;;;;;;;;;5052356;28;20021;-75
2022/03/27 09:48:24;;;;;;;19.33;11.82;;;;;;;;;;5052311;28;20013;-75
2022/03/27 09:50:52;;;;;;;20.33;10.43;;;;;;;;;;5051881;28;20017;-75
2022/03/27 09:53:18;;;;;;;16.35;8.65;;;;;;;;;;5034299;28;20394;-75
2022/03/27 09:55:45;;;;;;;16.35;8.50;;;;;;;;;;5051846;28;20351;-75
2022/03/27 09:58:12;;;;;;;16.67;9.48;;;;;;;;;;5052070;28;20100;-75
2022/03/27 10:00:38;;;;;;;16.40;8.25;;;;;;;;;;5052193;28;20379;-75
2022/03/27 10:03:11;;;;;;;14.13;7.40;;;;;;;;;;5052074;28;20016;-75
2022/03/27 10:05:38;;;;;;;13.77;7.63;;;;;;;;;;5052028;28;20082;-75
2022/03/27 10:08:04;;;;;;;14.10;7.35;;;;;;;;;;5051932;28;20017;-75
2022/03/27 10:10:30;;;;;;;12.43;6.55;;;;;;;;;;5051975;28;20028;-75
2022/03/27 10:12:57;;;;;;;12.68;6.47;;;;;;;;;;5051860;28;20376;-75
2022/03/27 10:15:28;;;;;;;13.18;6.03;;;;;;;;;;5051580;28;20087;-75
2022/03/27 10:17:58;;;;;;;15.63;6.55;;;;;;;;;;5051924;28;20543;-75
2022/03/27 10:20:27;;;;;;;15.63;6.30;;;;;;;;;;5067913;28;20028;-75
2022/03/27 10:22:54;;;;;;;17.63;7.15;;;;;;;;;;5071530;28;20083;-75
2022/03/27 10:25:21;;;;;;;11.75;6.20;;;;;;;;;;5071717;28;20031;-75
2022/03/27 10:27:48;;;;;;;12.20;6.32;;;;;;;;;;5071541;28;20036;-75
2022/03/27 10:30:16;;;;;;;12.45;6.60;;;;;;;;;;5071751;28;20021;-75
2022/03/27 10:32:43;;;;;;;13.13;6.00;;;;;;;;;;5071857;28;20168;-75
2022/03/27 10:35:15;;;;;;;13.13;5.65;;;;;;;;;;5071523;28;20068;-75
2022/03/27 10:37:50;;;;;;;12.43;5.07;;;;;;;;;;5053515;28;20119;-75
2022/03/27 10:40:26;;;;;;;9.57;5.32;;;;;;;;;;5071668;28;20029;-75
2022/03/27 10:43:11;;;;;;;10.57;5.05;;;;;;;;;;5071553;28;20091;-75
2022/03/27 10:45:38;;;;;;;13.68;5.57;;;;;;;;;;5071533;28;20032;-75
2022/03/27 10:48:11;;;;;;;11.23;4.88;;;;;;;;;;5071577;28;20025;-76
2022/03/27 10:50:45;;;;;;;10.60;4.75;;;;;;;;;;5071503;28;20047;-76
2022/03/27 10:53:11;;;;;;;11.60;5.20;;;;;;;;;;5072346;28;20063;-75
2022/03/27 10:55:59;;;;;;;15.75;4.97;;;;;;;;;;5075336;28;20056;-75
2022/03/27 10:58:25;;;;;;;11.25;4.80;;;;;;;;;;5075562;28;20040;-75
2022/03/27 11:00:51;;;;;;;8.65;4.18;;;;;;;;;;5075134;28;20479;-75
2022/03/27 11:03:35;;;;;;;8.40;4.10;;;;;;;;;;5075265;28;20025;-75
2022/03/27 11:06:01;;;;;;;8.32;3.88;;;;;;;;;;5075189;28;20020;-75
2022/03/27 11:08:30;;;;;;;7.95;3.75;;;;;;;;;;5057188;28;20035;-75
2022/03/27 11:10:59;;;;;;;11.30;5.03;;;;;;;;;;5075206;28;20386;-75
2022/03/27 11:13:25;;;;;;;8.45;4.10;;;;;;;;;;5074986;28;20034;-75
2022/03/27 11:16:03;;;;;;;12.82;3.95;;;;;;;;;;5075040;28;20021;-75
2022/03/27 11:18:41;;;;;;;9.90;4.30;;;;;;;;;;5075185;28;20027;-75
2022/03/27 11:21:07;;;;;;;11.60;4.93;;;;;;;;;;5074843;28;20167;-75
2022/03/27 11:23:38;;;;;;;8.88;4.50;;;;;;;;;;5074972;28;20328;-76
2022/03/27 11:26:05;;;;;;;11.70;4.47;;;;;;;;;;5074895;28;20099;-75
2022/03/27 11:28:50;;;;;;;11.85;4.82;;;;;;;;;;5075075;28;20029;-75
2022/03/27 11:31:17;;;;;;;9.95;3.65;;;;;;;;;;5074791;28;20383;-75
2022/03/27 11:33:45;;;;;;;7.45;3.55;;;;;;;;;;5056901;28;20111;-75
2022/03/27 11:36:12;;;;;;;8.13;2.95;;;;;;;;;;5074675;28;20131;-75
2022/03/27 11:38:47;;;;;;;8.23;2.72;;;;;;;;;;5056852;28;20123;-75
2022/03/27 11:41:27;;;;;;;8.35;3.22;;;;;;;;;;5065711;28;20124;-76
2022/03/27 11:43:55;;;;;;;7.80;3.10;;;;;;;;;;5054370;28;20076;-75
2022/03/27 11:46:25;;;;;;;7.53;3.00;;;;;;;;;;5054746;28;20013;-76
2022/03/27 11:48:58;;;;;;;6.07;2.75;;;;;;;;;;5053213;28;20029;-76
2022/03/27 11:51:25;;;;;;;4.93;2.72;;;;;;;;;;5054224;28;20100;-76
2022/03/27 11:53:52;;;;;;;6.25;2.60;;;;;;;;;;5054583;28;20064;-76
2022/03/27 11:56:18;;;;;;;6.93;2.92;;;;;;;;;;5054339;28;20178;-76
2022/03/27 11:59:02;;;;;;;4.40;2.60;;;;;;;;;;5054490;28;20025;-76
2022/03/27 12:01:28;;;;;;;5.95;2.25;;;;;;;;;;5054641;28;20039;-76
2022/03/27 12:03:57;;;;;;;5.53;2.17;;;;;;;;;;5054129;28;20029;-76
2022/03/27 12:06:27;;;;;;;6.32;2.30;;;;;;;;;;5053598;28;20021;-75
2022/03/27 12:08:53;;;;;;;7.72;2.45;;;;;;;;;;5054172;28;20036;-75
2022/03/27 12:11:23;;;;;;;4.90;2.17;;;;;;;;;;5054195;28;20036;-75
2022/03/27 12:13:49;;;;;;;4.95;1.70;;;;;;;;;;5065724;28;20471;-75
2022/03/27 12:16:16;;;;;;;7.05;2.33;;;;;;;;;;5056171;28;20036;-75
2022/03/27 12:18:47;;;;;;;4.72;2.22;;;;;;;;;;5074138;28;20024;-76
2022/03/27 12:21:14;;;;;;;5.20;2.20;;;;;;;;;;5074164;28;20100;-75
2022/03/27 12:23:41;;;;;;;6.63;2.58;;;;;;;;;;5073965;28;20039;-76
2022/03/27 12:31:56;;;;;;;5.75;1.75;;;;;;;;;;5054174;28;20051;-76
2022/03/27 12:34:22;;;;;;;5.25;1.75;;;;;;;;;;5053702;28;20024;-75
2022/03/27 12:37:10;;;;;;;6.97;1.60;;;;;;;;;;5053687;28;20383;-76
2022/03/27 12:39:38;;;;;;;4.50;1.77;;;;;;;;;;5053748;28;20069;-75
2022/03/27 12:42:05;;;;;;;5.18;1.70;;;;;;;;;;5053684;28;20021;-75
2022/03/27 12:44:47;;;;;;;4.28;1.90;;;;;;;;;;5053344;28;20041;-76
2022/03/27 12:47:13;;;;;;;2.67;1.70;;;;;;;;;;5053646;28;20410;-75
2022/03/27 12:49:50;;;;;;;12.75;1.65;;;;;;;;;;5053629;28;20128;-76
2022/03/27 12:52:16;;;;;;;3.55;1.52;;;;;;;;;;5053497;28;20013;-76
2022/03/27 12:55:18;;;;;;;3.83;1.50;;;;;;;;;;5053112;28;20032;-76
2022/03/27 12:57:48;;;;;;;3.03;1.40;;;;;;;;;;4972466;28;20027;-76
2022/03/27 13:00:14;;;;;;;4.40;1.50;;;;;;;;;;4972322;28;20135;-76
2022/03/27 13:02:40;;;;;;;3.38;1.40;;;;;;;;;;4972378;28;20158;-76
2022/03/27 13:05:07;;;;;;;5.50;1.80;;;;;;;;;;4972154;28;20046;-76
2022/03/27 13:07:52;;;;;;;7.65;1.92;;;;;;;;;;4972184;28;20359;-76
2022/03/27 13:10:18;;;;;;;2.72;1.20;;;;;;;;;;4972168;28;20382;-76
2022/03/27 13:12:44;;;;;;;6.03;1.52;;;;;;;;;;4974372;28;20039;-76
2022/03/27 13:15:11;;;;;;;3.85;1.20;;;;;;;;;;4991342;28;20030;-76
2022/03/27 13:17:37;;;;;;;2.15;1.00;;;;;;;;;;4991187;28;20392;-76
2022/03/27 13:20:03;;;;;;;6.18;1.52;;;;;;;;;;4991269;28;20030;-76
2022/03/27 13:22:29;;;;;;;4.88;1.27;;;;;;;;;;4991163;28;20038;-76
2022/03/27 13:24:55;;;;;;;5.72;1.83;;;;;;;;;;4991199;28;20065;-76
2022/03/27 13:27:21;;;;;;;4.40;1.73;;;;;;;;;;4991012;28;20473;-76
2022/03/27 13:29:47;;;;;;;5.82;2.10;;;;;;;;;;4990989;28;20038;-76
2022/03/27 13:32:13;;;;;;;5.60;1.70;;;;;;;;;;5035905;28;20033;-76
2022/03/27 13:34:39;;;;;;;4.63;1.60;;;;;;;;;;5052672;28;20028;-76
2022/03/27 13:37:05;;;;;;;3.97;1.80;;;;;;;;;;5052589;28;20585;-76
2022/03/27 13:39:32;;;;;;;6.25;2.13;;;;;;;;;;5052399;28;20094;-76
2022/03/27 13:44:43;;;;;;;5.53;2.33;;;;;;;;;;5072216;28;20054;-76
2022/03/27 13:47:10;;;;;;;4.72;2.10;;;;;;;;;;5072157;28;20031;-76
2022/03/27 13:49:36;;;;;;;5.45;1.90;;;;;;;;;;5072136;28;20024;-76
2022/03/27 13:52:02;;;;;;;4.68;2.05;;;;;;;;;;5072038;28;20052;-76
2022/03/27 13:54:28;;;;;;;7.70;2.85;;;;;;;;;;5072128;28;20032;-76
2022/03/27 13:56:54;;;;;;;4.82;2.28;;;;;;;;;;5071919;28;20028;-76
2022/03/27 13:59:20;;;;;;;4.63;1.92;;;;;;;;;;5072007;28;20094;-76
2022/03/27 14:01:48;;;;;;;4.60;2.00;;;;;;;;;;5071969;28;20108;-76
2022/03/27 14:04:16;;;;;;;6.45;2.42;;;;;;;;;;5053881;28;20375;-76
2022/03/27 14:06:43;;;;;;;9.23;2.30;;;;;;;;;;5071902;28;20508;-76
2022/03/27 14:09:09;;;;;;;8.50;2.75;;;;;;;;;;5071783;28;20028;-76
2022/03/27 14:11:36;;;;;;;5.22;2.50;;;;;;;;;;5071862;28;20031;-76
2022/03/27 14:14:03;;;;;;;6.15;2.40;;;;;;;;;;5071823;28;20383;-76
2022/03/27 14:16:29;;;;;;;7.88;2.90;;;;;;;;;;5071669;28;20033;-76
2022/03/27 14:18:55;;;;;;;15.82;3.47;;;;;;;;;;5071627;28;20119;-76
2022/03/27 14:21:21;;;;;;;5.90;2.60;;;;;;;;;;5071719;28;20024;-75
2022/03/27 14:23:47;;;;;;;10.18;2.80;;;;;;;;;;5071850;28;20059;-75
2022/03/27 14:26:14;;;;;;;6.47;2.53;;;;;;;;;;5071508;28;20064;-75
2022/03/27 14:28:40;;;;;;;9.15;2.47;;;;;;;;;;5070999;28;20024;-75
2022/03/27 14:31:06;;;;;;;8.80;2.38;;;;;;;;;;5071601;28;20450;-75
2022/03/27 14:33:32;;;;;;;4.35;2.40;;;;;;;;;;5071643;28;20024;-75
2022/03/27 14:35:58;;;;;;;7.43;2.63;;;;;;;;;;5071452;28;20108;-75
2022/03/27 14:38:25;;;;;;;7.95;2.80;;;;;;;;;;5071671;28;20032;-75
2022/03/27 14:40:52;;;;;;;7.28;3.03;;;;;;;;;;5071302;28;20387;-75
2022/03/27 14:43:18;;;;;;;7.65;2.30;;;;;;;;;;5071477;28;20041;-75
2022/03/27 14:45:44;;;;;;;9.25;2.30;;;;;;;;;;5071117;28;20036;-75
2022/03/27 14:48:11;;;;;;;6.07;2.55;;;;;;;;;;5071560;28;20051;-75